sensor_id;sensor_type;location;lat;lon;timestamp;pressure;altitude;pressure_sealevel;temperature;humidity
59487;BME280;45298;54.918;73.504;2023-04-03T00:01:32;101858.16;;;-4.73;72.06
59487;BME280;45298;54.918;73.504;2023-04-03T00:04:02;101874.00;;;-4.62;71.85
59487;BME280;45298;54.918;73.504;2023-04-03T00:06:32;101862.50;;;-4.72;71.83
59487;BME280;45298;54.918;73.504;2023-04-03T00:09:00;101869.56;;;-4.66;72.33
59487;BME280;45298;54.918;73.504;2023-04-03T00:11:29;101866.06;;;-4.68;72.09
59487;BME280;45298;54.918;73.504;2023-04-03T00:13:58;101863.28;;;-4.74;72.13
59487;BME280;45298;54.918;73.504;2023-04-03T00:16:26;101867.69;;;-4.72;71.76
59487;BME280;45298;54.918;73.504;2023-04-03T00:18:55;101874.66;;;-4.69;72.24
59487;BME280;45298;54.918;73.504;2023-04-03T00:21:25;101757.84;;;-5.38;72.26
59487;BME280;45298;54.918;73.504;2023-04-03T00:23:54;101888.63;;;-4.64;72.26
59487;BME280;45298;54.918;73.504;2023-04-03T00:26:23;101893.88;;;-4.61;72.20
59487;BME280;45298;54.918;73.504;2023-04-03T00:28:53;101859.66;;;-4.79;72.01
59487;BME280;45298;54.918;73.504;2023-04-03T00:31:22;101867.34;;;-4.82;71.68
59487;BME280;45298;54.918;73.504;2023-04-03T00:33:51;101896.00;;;-4.76;71.70
59487;BME280;45298;54.918;73.504;2023-04-03T00:36:20;101783.84;;;-5.33;72.65
59487;BME280;45298;54.918;73.504;2023-04-03T00:38:49;101892.56;;;-4.75;72.63
59487;BME280;45298;54.918;73.504;2023-04-03T00:41:18;101881.41;;;-4.74;72.27
59487;BME280;45298;54.918;73.504;2023-04-03T00:43:47;101881.25;;;-4.79;72.50
59487;BME280;45298;54.918;73.504;2023-04-03T00:46:15;101894.53;;;-4.68;71.75
59487;BME280;45298;54.918;73.504;2023-04-03T00:48:46;101897.22;;;-4.65;72.16
59487;BME280;45298;54.918;73.504;2023-04-03T00:51:25;101883.97;;;-4.74;72.03
59487;BME280;45298;54.918;73.504;2023-04-03T00:53:58;101879.69;;;-4.74;72.34
59487;BME280;45298;54.918;73.504;2023-04-03T00:56:30;101898.91;;;-4.65;72.38
59487;BME280;45298;54.918;73.504;2023-04-03T00:59:04;101892.88;;;-4.66;72.16
59487;BME280;45298;54.918;73.504;2023-04-03T01:01:34;101870.69;;;-4.87;72.42
59487;BME280;45298;54.918;73.504;2023-04-03T01:04:05;101889.88;;;-4.78;72.82
59487;BME280;45298;54.918;73.504;2023-04-03T01:06:36;101857.63;;;-4.90;72.55
59487;BME280;45298;54.918;73.504;2023-04-03T01:09:07;101873.44;;;-4.80;72.41
59487;BME280;45298;54.918;73.504;2023-04-03T01:11:39;101894.66;;;-4.63;72.19
59487;BME280;45298;54.918;73.504;2023-04-03T01:14:09;101874.34;;;-4.78;72.58
59487;BME280;45298;54.918;73.504;2023-04-03T01:16:53;101874.44;;;-4.77;72.13
59487;BME280;45298;54.918;73.504;2023-04-03T01:19:23;101882.66;;;-4.61;72.00
59487;BME280;45298;54.918;73.504;2023-04-03T01:22:10;101782.72;;;-5.14;72.54
59487;BME280;45298;54.918;73.504;2023-04-03T01:24:45;101879.34;;;-4.56;72.41
59487;BME280;45298;54.918;73.504;2023-04-03T01:27:15;101917.06;;;-4.36;72.25
59487;BME280;45298;54.918;73.504;2023-04-03T01:29:45;101816.56;;;-4.77;71.93
59487;BME280;45298;54.918;73.504;2023-04-03T01:32:15;101881.84;;;-4.30;72.04
59487;BME280;45298;54.918;73.504;2023-04-03T01:34:44;101868.81;;;-4.31;72.00
59487;BME280;45298;54.918;73.504;2023-04-03T01:37:13;101912.03;;;-4.00;71.40
59487;BME280;45298;54.918;73.504;2023-04-03T01:39:41;101803.47;;;-4.53;71.42
59487;BME280;45298;54.918;73.504;2023-04-03T01:42:10;101877.50;;;-3.99;71.05
59487;BME280;45298;54.918;73.504;2023-04-03T01:44:43;101900.69;;;-3.73;71.14
59487;BME280;45298;54.918;73.504;2023-04-03T01:47:13;101866.72;;;-3.82;70.17
59487;BME280;45298;54.918;73.504;2023-04-03T01:49:42;101896.09;;;-3.50;69.94
59487;BME280;45298;54.918;73.504;2023-04-03T01:52:11;101875.22;;;-3.54;69.87
59487;BME280;45298;54.918;73.504;2023-04-03T01:54:39;101861.41;;;-3.53;69.84
59487;BME280;45298;54.918;73.504;2023-04-03T01:57:08;101886.38;;;-3.23;69.65
59487;BME280;45298;54.918;73.504;2023-04-03T01:59:37;101887.84;;;-2.98;69.10
59487;BME280;45298;54.918;73.504;2023-04-03T02:02:06;101879.59;;;-1.49;66.41
59487;BME280;45298;54.918;73.504;2023-04-03T02:04:35;101914.19;;;0.29;62.97
59487;BME280;45298;54.918;73.504;2023-04-03T02:07:04;101920.41;;;1.50;59.88
59487;BME280;45298;54.918;73.504;2023-04-03T02:09:33;101888.50;;;2.51;56.97
59487;BME280;45298;54.918;73.504;2023-04-03T02:12:03;101889.34;;;3.30;55.03
59487;BME280;45298;54.918;73.504;2023-04-03T02:14:32;101900.47;;;3.99;53.67
59487;BME280;45298;54.918;73.504;2023-04-03T02:17:01;101893.13;;;4.57;52.02
59487;BME280;45298;54.918;73.504;2023-04-03T02:19:35;101886.78;;;4.86;50.17
59487;BME280;45298;54.918;73.504;2023-04-03T02:22:05;101876.63;;;5.38;49.17
59487;BME280;45298;54.918;73.504;2023-04-03T02:24:33;101878.00;;;5.71;48.20
59487;BME280;45298;54.918;73.504;2023-04-03T02:27:02;101896.84;;;6.11;47.10
59487;BME280;45298;54.918;73.504;2023-04-03T02:29:31;101872.88;;;6.29;46.59
59487;BME280;45298;54.918;73.504;2023-04-03T02:32:00;101862.88;;;6.50;45.76
59487;BME280;45298;54.918;73.504;2023-04-03T02:34:30;101893.72;;;7.00;45.39
59487;BME280;45298;54.918;73.504;2023-04-03T02:37:01;101878.34;;;7.23;43.74
59487;BME280;45298;54.918;73.504;2023-04-03T02:39:30;101867.19;;;7.09;44.08
59487;BME280;45298;54.918;73.504;2023-04-03T02:42:00;101868.78;;;7.18;42.98
59487;BME280;45298;54.918;73.504;2023-04-03T02:44:29;101781.09;;;6.55;43.59
59487;BME280;45298;54.918;73.504;2023-04-03T02:46:59;101869.44;;;6.80;43.60
59487;BME280;45298;54.918;73.504;2023-04-03T02:49:28;101896.66;;;6.83;43.83
59487;BME280;45298;54.918;73.504;2023-04-03T02:51:57;101843.38;;;6.62;43.96
59487;BME280;45298;54.918;73.504;2023-04-03T02:54:26;101879.13;;;6.78;44.08
59487;BME280;45298;54.918;73.504;2023-04-03T02:57:00;101863.06;;;6.39;44.85
59487;BME280;45298;54.918;73.504;2023-04-03T02:59:29;101853.25;;;5.85;45.56
59487;BME280;45298;54.918;73.504;2023-04-03T03:01:58;101893.56;;;5.88;46.77
59487;BME280;45298;54.918;73.504;2023-04-03T03:04:27;101893.66;;;5.81;46.69
59487;BME280;45298;54.918;73.504;2023-04-03T03:06:56;101894.06;;;5.47;47.13
59487;BME280;45298;54.918;73.504;2023-04-03T03:09:25;101891.72;;;5.20;47.22
59487;BME280;45298;54.918;73.504;2023-04-03T03:11:55;101885.97;;;4.79;47.78
59487;BME280;45298;54.918;73.504;2023-04-03T03:14:24;101849.50;;;4.33;48.26
59487;BME280;45298;54.918;73.504;2023-04-03T03:16:53;101890.59;;;4.45;48.61
59487;BME280;45298;54.918;73.504;2023-04-03T03:19:22;101866.94;;;4.45;48.97
59487;BME280;45298;54.918;73.504;2023-04-03T03:21:51;101869.75;;;4.15;49.25
59487;BME280;45298;54.918;73.504;2023-04-03T03:24:22;101886.50;;;3.96;49.75
59487;BME280;45298;54.918;73.504;2023-04-03T03:26:51;101859.44;;;3.80;50.36
59487;BME280;45298;54.918;73.504;2023-04-03T03:29:20;101888.28;;;3.84;50.78
59487;BME280;45298;54.918;73.504;2023-04-03T03:31:49;101859.50;;;3.61;51.08
59487;BME280;45298;54.918;73.504;2023-04-03T03:34:18;101869.13;;;3.62;51.46
59487;BME280;45298;54.918;73.504;2023-04-03T03:36:53;101863.00;;;3.63;50.74
59487;BME280;45298;54.918;73.504;2023-04-03T03:39:23;101862.94;;;3.75;51.22
59487;BME280;45298;54.918;73.504;2023-04-03T03:41:52;101873.47;;;3.77;51.17
59487;BME280;45298;54.918;73.504;2023-04-03T03:44:22;101870.84;;;3.72;51.15
59487;BME280;45298;54.918;73.504;2023-04-03T03:46:53;101873.41;;;3.91;50.81
59487;BME280;45298;54.918;73.504;2023-04-03T03:49:22;101769.47;;;3.48;50.05
59487;BME280;45298;54.918;73.504;2023-04-03T03:51:51;101875.88;;;4.20;50.38
59487;BME280;45298;54.918;73.504;2023-04-03T03:54:20;101842.63;;;4.13;50.21
59487;BME280;45298;54.918;73.504;2023-04-03T03:56:51;101898.41;;;4.52;50.09
59487;BME280;45298;54.918;73.504;2023-04-03T03:59:20;101872.13;;;4.52;50.19
59487;BME280;45298;54.918;73.504;2023-04-03T04:01:50;101893.84;;;4.75;49.46
59487;BME280;45298;54.918;73.504;2023-04-03T04:04:19;101814.44;;;4.35;49.56
59487;BME280;45298;54.918;73.504;2023-04-03T04:06:49;101899.84;;;4.97;48.87
59487;BME280;45298;54.918;73.504;2023-04-03T04:09:19;101863.97;;;4.87;49.82
59487;BME280;45298;54.918;73.504;2023-04-03T04:11:48;101909.16;;;5.29;49.33
59487;BME280;45298;54.918;73.504;2023-04-03T04:14:17;101862.69;;;5.28;48.78
59487;BME280;45298;54.918;73.504;2023-04-03T04:16:49;101813.78;;;5.11;49.03
59487;BME280;45298;54.918;73.504;2023-04-03T04:19:23;101886.16;;;5.47;48.96
59487;BME280;45298;54.918;73.504;2023-04-03T04:21:52;101896.63;;;5.54;48.66
59487;BME280;45298;54.918;73.504;2023-04-03T04:24:23;101882.59;;;5.52;48.70
59487;BME280;45298;54.918;73.504;2023-04-03T04:26:55;101884.16;;;5.70;48.41
59487;BME280;45298;54.918;73.504;2023-04-03T04:29:26;101902.22;;;5.98;47.76
59487;BME280;45298;54.918;73.504;2023-04-03T04:31:59;101883.00;;;5.93;46.66
59487;BME280;45298;54.918;73.504;2023-04-03T04:34:35;101904.75;;;6.09;47.59
59487;BME280;45298;54.918;73.504;2023-04-03T04:37:05;101907.22;;;6.20;47.91
59487;BME280;45298;54.918;73.504;2023-04-03T04:39:35;101903.59;;;6.30;46.80
59487;BME280;45298;54.918;73.504;2023-04-03T04:42:04;101824.16;;;5.93;46.67
59487;BME280;45298;54.918;73.504;2023-04-03T04:44:36;101899.06;;;6.40;46.39
59487;BME280;45298;54.918;73.504;2023-04-03T04:47:07;101864.91;;;6.31;47.40
59487;BME280;45298;54.918;73.504;2023-04-03T04:49:36;101887.50;;;6.49;46.48
59487;BME280;45298;54.918;73.504;2023-04-03T04:52:05;101891.00;;;6.51;46.46
59487;BME280;45298;54.918;73.504;2023-04-03T04:54:35;101884.09;;;6.41;46.31
59487;BME280;45298;54.918;73.504;2023-04-03T04:57:05;101873.56;;;6.41;47.25
59487;BME280;45298;54.918;73.504;2023-04-03T04:59:34;101890.88;;;6.57;46.14
59487;BME280;45298;54.918;73.504;2023-04-03T05:02:06;101884.69;;;6.60;46.40
59487;BME280;45298;54.918;73.504;2023-04-03T05:04:38;101862.94;;;6.47;46.64
59487;BME280;45298;54.918;73.504;2023-04-03T05:07:13;101896.78;;;6.75;46.47
59487;BME280;45298;54.918;73.504;2023-04-03T05:09:44;101884.44;;;6.75;46.30
59487;BME280;45298;54.918;73.504;2023-04-03T05:12:16;101881.69;;;6.83;46.46
59487;BME280;45298;54.918;73.504;2023-04-03T05:14:52;101848.47;;;6.71;46.77
59487;BME280;45298;54.918;73.504;2023-04-03T05:17:21;101869.19;;;6.94;46.74
59487;BME280;45298;54.918;73.504;2023-04-03T05:19:53;101876.94;;;7.04;46.21
59487;BME280;45298;54.918;73.504;2023-04-03T05:22:24;101881.16;;;7.14;45.86
59487;BME280;45298;54.918;73.504;2023-04-03T05:24:57;101873.06;;;7.23;46.47
59487;BME280;45298;54.918;73.504;2023-04-03T05:27:26;101868.38;;;7.38;45.85
59487;BME280;45298;54.918;73.504;2023-04-03T05:29:58;101832.63;;;7.21;46.27
59487;BME280;45298;54.918;73.504;2023-04-03T05:32:30;101869.00;;;7.52;45.92
59487;BME280;45298;54.918;73.504;2023-04-03T05:35:11;101881.16;;;7.61;45.78
59487;BME280;45298;54.918;73.504;2023-04-03T05:37:41;101861.66;;;7.67;47.14
59487;BME280;45298;54.918;73.504;2023-04-03T05:40:11;101781.22;;;7.41;46.12
59487;BME280;45298;54.918;73.504;2023-04-03T05:42:43;101871.38;;;8.06;46.04
59487;BME280;45298;54.918;73.504;2023-04-03T05:45:16;101833.66;;;7.99;46.49
59487;BME280;45298;54.918;73.504;2023-04-03T05:47:45;101869.28;;;8.22;46.03
59487;BME280;45298;54.918;73.504;2023-04-03T05:50:14;101863.69;;;8.34;45.40
59487;BME280;45298;54.918;73.504;2023-04-03T05:52:45;101867.44;;;8.25;45.12
59487;BME280;45298;54.918;73.504;2023-04-03T05:55:16;101862.31;;;8.19;45.32
59487;BME280;45298;54.918;73.504;2023-04-03T05:57:45;101847.47;;;8.13;45.40
59487;BME280;45298;54.918;73.504;2023-04-03T06:00:15;101832.56;;;8.09;44.78
59487;BME280;45298;54.918;73.504;2023-04-03T06:02:53;101849.09;;;8.17;45.28
59487;BME280;45298;54.918;73.504;2023-04-03T06:05:24;101849.81;;;8.24;45.40
59487;BME280;45298;54.918;73.504;2023-04-03T06:07:53;101849.75;;;8.29;45.27
59487;BME280;45298;54.918;73.504;2023-04-03T06:10:22;101821.84;;;8.15;46.44
59487;BME280;45298;54.918;73.504;2023-04-03T06:12:51;101850.38;;;8.39;46.24
59487;BME280;45298;54.918;73.504;2023-04-03T06:15:20;101831.31;;;8.26;46.48
59487;BME280;45298;54.918;73.504;2023-04-03T06:17:49;101855.63;;;8.40;45.79
59487;BME280;45298;54.918;73.504;2023-04-03T06:20:18;101849.50;;;8.38;44.95
59487;BME280;45298;54.918;73.504;2023-04-03T06:22:47;101831.97;;;8.34;45.44
59487;BME280;45298;54.918;73.504;2023-04-03T06:25:16;101832.09;;;8.29;45.36
59487;BME280;45298;54.918;73.504;2023-04-03T06:27:47;101814.84;;;8.13;44.58
59487;BME280;45298;54.918;73.504;2023-04-03T06:30:16;101822.59;;;8.21;44.94
59487;BME280;45298;54.918;73.504;2023-04-03T06:32:44;101857.22;;;8.47;45.21
59487;BME280;45298;54.918;73.504;2023-04-03T06:35:13;101860.78;;;8.46;45.03
59487;BME280;45298;54.918;73.504;2023-04-03T06:37:43;101843.13;;;8.49;45.21
59487;BME280;45298;54.918;73.504;2023-04-03T06:40:19;101860.28;;;8.68;45.10
59487;BME280;45298;54.918;73.504;2023-04-03T06:42:49;101851.53;;;8.66;45.11
59487;BME280;45298;54.918;73.504;2023-04-03T06:45:19;101817.69;;;8.43;44.56
59487;BME280;45298;54.918;73.504;2023-04-03T06:47:48;101782.94;;;8.21;44.83
59487;BME280;45298;54.918;73.504;2023-04-03T06:50:18;101834.88;;;8.63;45.49
59487;BME280;45298;54.918;73.504;2023-04-03T06:52:46;101852.16;;;8.76;44.72
59487;BME280;45298;54.918;73.504;2023-04-03T06:55:15;101828.69;;;8.62;44.62
59487;BME280;45298;54.918;73.504;2023-04-03T06:57:44;101850.38;;;8.76;44.72
59487;BME280;45298;54.918;73.504;2023-04-03T07:00:14;101814.78;;;8.54;44.49
59487;BME280;45298;54.918;73.504;2023-04-03T07:02:43;101833.97;;;8.62;44.73
59487;BME280;45298;54.918;73.504;2023-04-03T07:05:12;101826.72;;;8.70;44.35
59487;BME280;45298;54.918;73.504;2023-04-03T07:07:41;101828.38;;;8.74;44.70
59487;BME280;45298;54.918;73.504;2023-04-03T07:10:10;101834.50;;;8.76;45.09
59487;BME280;45298;54.918;73.504;2023-04-03T07:12:39;101843.97;;;8.85;45.24
59487;BME280;45298;54.918;73.504;2023-04-03T07:15:09;101833.84;;;8.68;45.47
59487;BME280;45298;54.918;73.504;2023-04-03T07:17:38;101852.22;;;8.73;45.08
59487;BME280;45298;54.918;73.504;2023-04-03T07:20:07;101786.81;;;8.43;45.82
59487;BME280;45298;54.918;73.504;2023-04-03T07:22:37;101843.25;;;8.80;45.01
59487;BME280;45298;54.918;73.504;2023-04-03T07:25:06;101826.81;;;8.67;44.59
59487;BME280;45298;54.918;73.504;2023-04-03T07:27:35;101849.38;;;8.81;45.29
59487;BME280;45298;54.918;73.504;2023-04-03T07:30:04;101830.66;;;8.88;45.00
59487;BME280;45298;54.918;73.504;2023-04-03T07:32:34;101847.78;;;9.08;45.21
59487;BME280;45298;54.918;73.504;2023-04-03T07:35:04;101845.81;;;9.16;45.86
59487;BME280;45298;54.918;73.504;2023-04-03T07:37:32;101839.72;;;9.13;45.82
59487;BME280;45298;54.918;73.504;2023-04-03T07:40:02;101842.19;;;9.19;46.01
59487;BME280;45298;54.918;73.504;2023-04-03T07:42:31;101820.41;;;9.09;46.02
59487;BME280;45298;54.918;73.504;2023-04-03T07:45:01;101818.66;;;9.10;45.48
59487;BME280;45298;54.918;73.504;2023-04-03T07:47:30;101803.69;;;9.07;46.22
59487;BME280;45298;54.918;73.504;2023-04-03T07:49:59;101815.59;;;9.23;45.81
59487;BME280;45298;54.918;73.504;2023-04-03T07:52:28;101803.06;;;9.30;45.65
59487;BME280;45298;54.918;73.504;2023-04-03T07:54:57;101830.03;;;9.45;46.32
59487;BME280;45298;54.918;73.504;2023-04-03T07:57:26;101841.25;;;9.53;46.35
59487;BME280;45298;54.918;73.504;2023-04-03T07:59:54;101822.06;;;9.45;46.43
59487;BME280;45298;54.918;73.504;2023-04-03T08:02:23;101820.97;;;9.52;46.26
59487;BME280;45298;54.918;73.504;2023-04-03T08:04:52;101839.13;;;9.66;46.05
59487;BME280;45298;54.918;73.504;2023-04-03T08:07:21;101831.31;;;9.61;46.12
59487;BME280;45298;54.918;73.504;2023-04-03T08:09:50;101831.38;;;9.60;46.12
59487;BME280;45298;54.918;73.504;2023-04-03T08:12:19;101817.78;;;9.41;45.98
59487;BME280;45298;54.918;73.504;2023-04-03T08:14:48;101809.16;;;9.32;45.77
59487;BME280;45298;54.918;73.504;2023-04-03T08:17:17;101837.66;;;9.56;45.55
59487;BME280;45298;54.918;73.504;2023-04-03T08:19:46;101786.53;;;9.22;45.75
59487;BME280;45298;54.918;73.504;2023-04-03T08:22:15;101772.28;;;9.26;46.06
59487;BME280;45298;54.918;73.504;2023-04-03T08:24:44;101827.88;;;9.58;45.08
59487;BME280;45298;54.918;73.504;2023-04-03T08:27:26;101819.50;;;9.42;46.23
59487;BME280;45298;54.918;73.504;2023-04-03T08:29:56;101816.78;;;9.45;46.46
59487;BME280;45298;54.918;73.504;2023-04-03T08:32:25;101828.00;;;9.53;46.13
59487;BME280;45298;54.918;73.504;2023-04-03T08:34:54;101818.53;;;9.46;46.08
59487;BME280;45298;54.918;73.504;2023-04-03T08:37:23;101841.91;;;9.61;46.52
59487;BME280;45298;54.918;73.504;2023-04-03T08:39:52;101818.38;;;9.50;45.76
59487;BME280;45298;54.918;73.504;2023-04-03T08:43:40;101837.34;;;9.66;46.07
59487;BME280;45298;54.918;73.504;2023-04-03T08:45:52;101822.28;;;9.68;46.59
59487;BME280;45298;54.918;73.504;2023-04-03T08:50:54;101832.66;;;9.75;46.63
59487;BME280;45298;54.918;73.504;2023-04-03T08:53:29;101806.72;;;9.56;46.79
59487;BME280;45298;54.918;73.504;2023-04-03T08:56:09;101821.78;;;9.56;47.30
59487;BME280;45298;54.918;73.504;2023-04-03T08:59:05;101814.88;;;9.50;47.13
59487;BME280;45298;54.918;73.504;2023-04-03T09:01:38;101829.81;;;9.52;47.40
59487;BME280;45298;54.918;73.504;2023-04-03T09:04:15;101806.94;;;9.50;46.89
59487;BME280;45298;54.918;73.504;2023-04-03T09:06:57;101818.31;;;9.52;47.37
59487;BME280;45298;54.918;73.504;2023-04-03T09:09:38;101802.88;;;9.36;47.28
59487;BME280;45298;54.918;73.504;2023-04-03T09:12:24;101800.50;;;9.27;47.54
59487;BME280;45298;54.918;73.504;2023-04-03T09:23:33;101816.47;;;9.24;48.53
59487;BME280;45298;54.918;73.504;2023-04-03T09:26:13;101798.16;;;9.16;48.14
59487;BME280;45298;54.918;73.504;2023-04-03T09:28:43;101823.59;;;9.22;48.47
59487;BME280;45298;54.918;73.504;2023-04-03T09:31:23;101745.63;;;8.69;48.88
59487;BME280;45298;54.918;73.504;2023-04-03T09:33:55;101823.06;;;9.09;48.34
59487;BME280;45298;54.918;73.504;2023-04-03T09:36:48;101839.78;;;9.11;49.18
59487;BME280;45298;54.918;73.504;2023-04-03T09:39:19;101814.34;;;9.05;49.64
59487;BME280;45298;54.918;73.504;2023-04-03T09:42:05;101759.78;;;8.68;50.03
59487;BME280;45298;54.918;73.504;2023-04-03T09:44:38;101833.50;;;9.15;49.08
59487;BME280;45298;54.918;73.504;2023-04-03T09:47:23;101797.00;;;8.94;49.92
59487;BME280;45298;54.918;73.504;2023-04-03T09:52:46;101819.78;;;9.01;49.64
59487;BME280;45298;54.918;73.504;2023-04-03T09:55:23;101749.41;;;8.59;49.54
59487;BME280;45298;54.918;73.504;2023-04-03T09:58:00;101826.13;;;8.94;50.23
59487;BME280;45298;54.918;73.504;2023-04-03T10:00:35;101784.47;;;8.67;51.23
59487;BME280;45298;54.918;73.504;2023-04-03T10:03:25;101809.81;;;8.76;49.87
59487;BME280;45298;54.918;73.504;2023-04-03T10:05:56;101781.09;;;8.62;49.76
59487;BME280;45298;54.918;73.504;2023-04-03T10:08:32;101791.66;;;8.62;49.89
59487;BME280;45298;54.918;73.504;2023-04-03T10:11:17;101788.09;;;8.63;49.67
59487;BME280;45298;54.918;73.504;2023-04-03T10:14:01;101775.09;;;8.55;49.84
59487;BME280;45298;54.918;73.504;2023-04-03T10:25:35;101811.09;;;8.61;50.34
59487;BME280;45298;54.918;73.504;2023-04-03T10:33:59;101811.22;;;8.56;50.25
59487;BME280;45298;54.918;73.504;2023-04-03T10:36:43;101797.03;;;8.59;50.25
59487;BME280;45298;54.918;73.504;2023-04-03T10:42:03;101786.81;;;8.43;50.17
59487;BME280;45298;54.918;73.504;2023-04-03T10:45:45;101756.59;;;8.17;50.53
59487;BME280;45298;54.918;73.504;2023-04-03T10:59:32;101804.56;;;8.38;50.39
59487;BME280;45298;54.918;73.504;2023-04-03T11:05:31;101794.28;;;8.26;51.13
59487;BME280;45298;54.918;73.504;2023-04-03T11:10:49;101769.22;;;8.06;50.45
59487;BME280;45298;54.918;73.504;2023-04-03T11:15:48;101763.16;;;8.01;50.98
59487;BME280;45298;54.918;73.504;2023-04-03T11:18:43;101790.94;;;8.17;49.82
59487;BME280;45298;54.918;73.504;2023-04-03T11:24:29;101771.84;;;8.06;50.57
59487;BME280;45298;54.918;73.504;2023-04-03T11:27:01;101759.59;;;8.04;50.04
59487;BME280;45298;54.918;73.504;2023-04-03T11:29:36;101733.56;;;7.85;50.91
59487;BME280;45298;54.918;73.504;2023-04-03T11:35:05;101782.34;;;8.09;50.81
59487;BME280;45298;54.918;73.504;2023-04-03T11:37:50;101790.22;;;8.12;49.95
59487;BME280;45298;54.918;73.504;2023-04-03T11:40:24;101790.22;;;8.11;49.51
59487;BME280;45298;54.918;73.504;2023-04-03T11:45:51;101786.03;;;8.02;51.02
59487;BME280;45298;54.918;73.504;2023-04-03T11:54:34;101780.03;;;7.95;51.27
59487;BME280;45298;54.918;73.504;2023-04-03T11:57:44;101783.63;;;7.93;50.82
59487;BME280;45298;54.918;73.504;2023-04-03T12:16:28;101776.41;;;7.60;52.49
59487;BME280;45298;54.918;73.504;2023-04-03T12:19:31;101782.53;;;7.62;52.75
59487;BME280;45298;54.918;73.504;2023-04-03T12:22:15;101764.31;;;7.50;53.95
59487;BME280;45298;54.918;73.504;2023-04-03T12:24:46;101743.38;;;7.40;53.82
59487;BME280;45298;54.918;73.504;2023-04-03T12:27:49;101774.84;;;7.51;54.04
59487;BME280;45298;54.918;73.504;2023-04-03T12:30:25;101739.25;;;7.29;54.10
59487;BME280;45298;54.918;73.504;2023-04-03T12:33:02;101770.69;;;7.39;54.59
59487;BME280;45298;54.918;73.504;2023-04-03T12:36:02;101780.50;;;7.33;54.99
59487;BME280;45298;54.918;73.504;2023-04-03T12:39:05;101778.03;;;7.25;56.14
59487;BME280;45298;54.918;73.504;2023-04-03T12:41:48;101771.94;;;7.21;56.03
59487;BME280;45298;54.918;73.504;2023-04-03T12:47:35;101744.47;;;6.86;56.88
59487;BME280;45298;54.918;73.504;2023-04-03T12:50:32;101742.09;;;6.74;57.41
59487;BME280;45298;54.918;73.504;2023-04-03T12:53:06;101769.97;;;6.87;57.86
59487;BME280;45298;54.918;73.504;2023-04-03T12:55:35;101743.13;;;6.65;58.29
59487;BME280;45298;54.918;73.504;2023-04-03T12:58:21;101763.31;;;6.66;58.02
59487;BME280;45298;54.918;73.504;2023-04-03T13:01:10;101743.47;;;6.45;58.97
59487;BME280;45298;54.918;73.504;2023-04-03T13:03:51;101748.84;;;6.39;59.14
59487;BME280;45298;54.918;73.504;2023-04-03T13:06:42;101762.91;;;6.38;58.96
59487;BME280;45298;54.918;73.504;2023-04-03T13:09:26;101757.09;;;6.18;60.09
59487;BME280;45298;54.918;73.504;2023-04-03T13:14:26;101737.34;;;5.88;60.56
59487;BME280;45298;54.918;73.504;2023-04-03T13:17:15;101727.03;;;5.71;60.46
59487;BME280;45298;54.918;73.504;2023-04-03T13:19:45;101706.28;;;5.51;61.02
59487;BME280;45298;54.918;73.504;2023-04-03T13:22:36;101756.06;;;5.68;61.41
59487;BME280;45298;54.918;73.504;2023-04-03T13:25:09;101736.31;;;5.37;61.62
59487;BME280;45298;54.918;73.504;2023-04-03T13:27:39;101718.94;;;5.21;61.95
59487;BME280;45298;54.918;73.504;2023-04-03T13:30:28;101706.09;;;4.97;62.59
59487;BME280;45298;54.918;73.504;2023-04-03T13:33:00;101735.84;;;5.03;62.76
59487;BME280;45298;54.918;73.504;2023-04-03T13:35:38;101734.22;;;4.91;62.36
59487;BME280;45298;54.918;73.504;2023-04-03T13:43:24;101747.59;;;4.69;63.49
59487;BME280;45298;54.918;73.504;2023-04-03T13:48:35;101760.00;;;4.54;63.62
59487;BME280;45298;54.918;73.504;2023-04-03T13:51:20;101735.66;;;4.34;63.88
59487;BME280;45298;54.918;73.504;2023-04-03T13:53:55;101758.41;;;4.33;64.19
59487;BME280;45298;54.918;73.504;2023-04-03T13:56:36;101712.28;;;4.01;63.80
59487;BME280;45298;54.918;73.504;2023-04-03T14:01:46;101750.78;;;4.02;64.46
59487;BME280;45298;54.918;73.504;2023-04-03T14:06:46;101751.84;;;3.75;64.75
59487;BME280;45298;54.918;73.504;2023-04-03T14:09:17;101747.50;;;3.68;65.31
59487;BME280;45298;54.918;73.504;2023-04-03T14:11:52;101672.63;;;3.12;65.49
59487;BME280;45298;54.918;73.504;2023-04-03T14:14:27;101762.44;;;3.59;65.82
59487;BME280;45298;54.918;73.504;2023-04-03T14:17:01;101734.56;;;3.37;65.44
59487;BME280;45298;54.918;73.504;2023-04-03T14:19:33;101722.41;;;3.23;66.00
59487;BME280;45298;54.918;73.504;2023-04-03T14:22:15;101667.50;;;2.84;65.93
59487;BME280;45298;54.918;73.504;2023-04-03T14:24:44;101670.16;;;2.83;66.11
59487;BME280;45298;54.918;73.504;2023-04-03T14:27:25;101759.97;;;3.30;65.89
59487;BME280;45298;54.918;73.504;2023-04-03T14:29:55;101753.88;;;3.17;65.97
59487;BME280;45298;54.918;73.504;2023-04-03T14:32:26;101731.22;;;3.00;65.71
59487;BME280;45298;54.918;73.504;2023-04-03T14:34:55;101663.22;;;2.54;65.96
59487;BME280;45298;54.918;73.504;2023-04-03T14:37:29;101755.69;;;3.04;65.95
59487;BME280;45298;54.918;73.504;2023-04-03T14:40:01;101726.03;;;2.80;66.73
59487;BME280;45298;54.918;73.504;2023-04-03T14:42:34;101739.13;;;2.86;67.08
59487;BME280;45298;54.918;73.504;2023-04-03T14:45:10;101754.84;;;2.88;67.36
59487;BME280;45298;54.918;73.504;2023-04-03T14:47:44;101731.31;;;2.66;67.16
59487;BME280;45298;54.918;73.504;2023-04-03T14:50:17;101754.03;;;2.69;67.44
59487;BME280;45298;54.918;73.504;2023-04-03T14:52:48;101756.66;;;2.58;67.68
59487;BME280;45298;54.918;73.504;2023-04-03T14:55:19;101655.47;;;1.93;68.06
59487;BME280;45298;54.918;73.504;2023-04-03T14:57:49;101727.88;;;2.24;68.06
59487;BME280;45298;54.918;73.504;2023-04-03T15:00:20;101716.53;;;2.14;68.49